Time;durP1;ratioP1;P1;durP2;ratioP2;P2;SDS_P1;SDS_P2;PMS_P1;PMS_P2;Temp;Humidity;BMP_temperature;BMP_pressure;BME280_temperature;BME280_humidity;BME280_pressure;Samples;Min_cycle;Max_cycle;Signal;HPM_P1;HPM_P2
2022/12/10 00:02:01;;;;;;;23.70;16.80;;;2.30;99.90;;;;;;10434190;28;20222;-77
2022/12/10 00:07:02;;;;;;;23.63;16.33;;;2.30;99.90;;;;;;10438054;28;20231;-78
2022/12/10 00:12:03;;;;;;;23.43;17.33;;;2.30;99.90;;;;;;10433047;28;20209;-76
2022/12/10 00:17:03;;;;;;;23.57;16.60;;;2.30;99.90;;;;;;10430914;28;20315;-74
2022/12/10 00:22:04;;;;;;;26.97;17.40;;;2.20;99.90;;;;;;10434885;28;20250;-74
2022/12/10 00:27:04;;;;;;;24.67;16.00;;;2.10;99.90;;;;;;10433747;28;20303;-76
2022/12/10 00:32:05;;;;;;;26.03;17.40;;;2.10;99.90;;;;;;10434572;28;20258;-77
2022/12/10 00:37:06;;;;;;;27.27;18.67;;;2.10;99.90;;;;;;10432195;28;20220;-76
2022/12/10 00:42:06;;;;;;;24.27;17.80;;;2.10;99.90;;;;;;10435246;28;20817;-77
2022/12/10 00:47:07;;;;;;;26.20;17.80;;;2.10;99.90;;;;;;10437126;28;20228;-78
2022/12/10 00:52:08;;;;;;;23.70;16.40;;;2.10;99.90;;;;;;10432125;28;20248;-78
2022/12/10 00:57:08;;;;;;;25.33;17.43;;;2.10;99.90;;;;;;10429122;28;20664;-77
2022/12/10 01:02:09;;;;;;;25.90;17.63;;;2.00;99.90;;;;;;10439570;28;20318;-77
2022/12/10 01:07:10;;;;;;;23.77;16.93;;;2.00;99.90;;;;;;10437080;28;20314;-78
2022/12/10 01:12:10;;;;;;;23.83;16.20;;;2.00;99.90;;;;;;10432963;28;20231;-76
2022/12/10 01:17:11;;;;;;;28.07;17.77;;;1.90;99.90;;;;;;10446273;28;20351;-78
2022/12/10 01:22:11;;;;;;;25.60;16.77;;;1.90;99.90;;;;;;10434516;28;20613;-78
2022/12/10 01:27:12;;;;;;;25.73;16.60;;;1.90;99.90;;;;;;10428365;28;20254;-79
2022/12/10 01:32:12;;;;;;;26.30;17.30;;;2.00;99.90;;;;;;10436206;28;20288;-74
2022/12/10 01:37:13;;;;;;;28.13;17.77;;;1.90;99.90;;;;;;10438875;28;20216;-77
2022/12/10 01:42:14;;;;;;;27.27;18.23;;;2.00;99.90;;;;;;10437808;28;20320;-78
2022/12/10 01:47:14;;;;;;;25.80;17.37;;;2.00;99.90;;;;;;10441834;28;20637;-79
2022/12/10 01:52:15;;;;;;;29.13;17.73;;;1.90;99.90;;;;;;10440737;28;20254;-78
2022/12/10 01:57:27;;;;;;;25.87;17.40;;;2.00;99.90;;;;;;10427404;28;20715;-79
2022/12/10 02:02:55;;;;;;;26.47;17.17;;;2.00;99.90;;;;;;10426663;28;20220;-76
2022/12/10 02:08:26;;;;;;;25.53;17.17;;;1.90;99.90;;;;;;10431349;28;20335;-77
2022/12/10 02:13:34;;;;;;;26.00;17.37;;;1.90;99.90;;;;;;10434566;28;20362;-77
2022/12/10 02:18:53;;;;;;;23.37;15.93;;;1.90;99.90;;;;;;10425707;28;20715;-78
2022/12/10 02:24:03;;;;;;;23.30;16.67;;;1.90;99.90;;;;;;10424812;28;20220;-77
2022/12/10 02:29:16;;;;;;;23.70;15.70;;;1.80;99.90;;;;;;10429768;28;20236;-77
2022/12/10 02:34:21;;;;;;;22.40;14.37;;;1.90;99.90;;;;;;10427303;28;20220;-78
2022/12/10 02:39:27;;;;;;;23.53;16.17;;;1.90;99.90;;;;;;10439306;28;20691;-78
2022/12/10 02:44:29;;;;;;;22.90;15.83;;;1.90;99.90;;;;;;10425917;28;20304;-76
2022/12/10 02:49:30;;;;;;;20.80;15.07;;;1.90;99.90;;;;;;10426235;28;20600;-78
2022/12/10 02:54:39;;;;;;;22.27;14.70;;;1.90;99.90;;;;;;10433626;28;20247;-78
2022/12/10 02:59:59;;;;;;;22.87;15.10;;;1.90;99.90;;;;;;10428135;28;20309;-78
2022/12/10 03:05:09;;;;;;;21.67;15.13;;;1.90;99.90;;;;;;10430000;28;20247;-78
2022/12/10 03:10:41;;;;;;;21.73;15.30;;;1.90;99.90;;;;;;10427416;28;20553;-78
2022/12/10 03:15:42;;;;;;;22.33;14.77;;;1.90;99.90;;;;;;10433218;28;20239;-79
2022/12/10 03:20:46;;;;;;;18.73;14.13;;;1.90;99.90;;;;;;10431157;28;20292;-77
2022/12/10 03:25:49;;;;;;;20.07;13.90;;;1.90;99.90;;;;;;10438105;28;20227;-78
2022/12/10 03:30:51;;;;;;;18.90;14.43;;;1.80;99.90;;;;;;10433905;28;20219;-77
2022/12/10 03:35:52;;;;;;;18.90;13.60;;;1.80;99.90;;;;;;10432301;28;20212;-76
2022/12/10 03:40:52;;;;;;;17.87;12.77;;;1.80;99.90;;;;;;10448443;28;20245;-76
2022/12/10 03:45:53;;;;;;;18.80;13.00;;;1.80;99.90;;;;;;10435212;28;20251;-77
2022/12/10 03:50:53;;;;;;;18.97;13.70;;;1.80;99.90;;;;;;10439893;28;20322;-77
2022/12/10 03:55:54;;;;;;;20.07;13.67;;;1.70;99.90;;;;;;10437962;28;20255;-78
2022/12/10 04:00:54;;;;;;;19.70;13.63;;;1.80;99.90;;;;;;10443355;28;20231;-79
2022/12/10 04:06:04;;;;;;;17.97;12.73;;;1.80;99.90;;;;;;10435918;28;20209;-77
2022/12/10 04:11:10;;;;;;;19.27;13.07;;;1.80;99.90;;;;;;10433936;28;20227;-78
2022/12/10 04:16:29;;;;;;;18.27;12.53;;;1.80;99.90;;;;;;10433480;28;20212;-77
2022/12/10 04:26:54;;;;;;;18.20;12.90;;;1.90;99.90;;;;;;10435898;28;20217;-77
2022/12/10 04:31:55;;;;;;;18.67;13.13;;;1.90;99.90;;;;;;10438500;28;20238;-78
2022/12/10 04:36:58;;;;;;;18.30;13.57;;;1.90;99.90;;;;;;10432463;28;20688;-79
2022/12/10 04:41:59;;;;;;;19.10;13.13;;;1.80;99.90;;;;;;10432892;28;20276;-79
2022/12/10 04:47:01;;;;;;;19.67;13.63;;;1.80;99.90;;;;;;10432002;28;20214;-78
2022/12/10 04:52:02;;;;;;;16.43;12.20;;;1.80;99.90;;;;;;10433867;28;20222;-78
2022/12/10 04:57:02;;;;;;;18.00;12.83;;;1.80;99.90;;;;;;10437608;28;20235;-78
2022/12/10 05:02:04;;;;;;;17.23;12.43;;;1.80;99.90;;;;;;10430926;28;20232;-77
2022/12/10 05:07:04;;;;;;;17.03;12.20;;;1.80;99.90;;;;;;10432613;28;20255;-78
2022/12/10 05:12:05;;;;;;;18.50;12.87;;;1.80;99.90;;;;;;10431878;28;20243;-77
2022/12/10 05:17:06;;;;;;;16.57;12.40;;;1.80;99.90;;;;;;10434075;28;20592;-79
2022/12/10 05:27:47;;;;;;;18.00;13.17;;;1.80;99.90;;;;;;10389974;28;20252;-79
2022/12/10 05:32:48;;;;;;;15.73;12.30;;;1.80;99.90;;;;;;10414044;28;20672;-77
2022/12/10 05:37:48;;;;;;;16.00;12.27;;;1.80;99.90;;;;;;10437519;28;20220;-77
2022/12/10 05:42:49;;;;;;;14.87;11.33;;;1.80;99.90;;;;;;10421961;28;20314;-79
2022/12/10 05:47:49;;;;;;;16.20;11.80;;;1.80;99.90;;;;;;10432179;28;20299;-78
2022/12/10 05:52:50;;;;;;;13.67;10.77;;;1.80;99.90;;;;;;10429866;28;20295;-79
2022/12/10 05:57:51;;;;;;;14.10;10.33;;;1.80;99.90;;;;;;10440758;28;20924;-76
2022/12/10 06:02:52;;;;;;;15.10;11.03;;;1.80;99.90;;;;;;10429433;28;20238;-77
2022/12/10 06:07:53;;;;;;;17.20;11.40;;;1.70;99.90;;;;;;10435113;28;20269;-77
2022/12/10 06:12:53;;;;;;;15.47;11.20;;;1.70;99.90;;;;;;10432157;28;20246;-78
2022/12/10 06:17:55;;;;;;;21.77;14.03;;;1.70;99.90;;;;;;10430191;28;20323;-78
2022/12/10 06:22:56;;;;;;;17.47;11.57;;;1.60;99.90;;;;;;10430936;28;20221;-78
2022/12/10 06:27:56;;;;;;;16.37;11.63;;;1.40;99.90;;;;;;10428266;28;20223;-77
2022/12/10 06:32:57;;;;;;;17.37;11.20;;;1.40;99.90;;;;;;10430369;28;20278;-76
2022/12/10 06:37:57;;;;;;;16.80;11.53;;;1.30;99.90;;;;;;10437551;28;20744;-78
2022/12/10 06:42:58;;;;;;;15.70;11.13;;;1.20;99.90;;;;;;10429757;28;20307;-78
2022/12/10 06:47:58;;;;;;;16.07;11.80;;;1.30;99.90;;;;;;10428805;28;20223;-77
2022/12/10 06:52:59;;;;;;;17.00;12.30;;;1.40;99.90;;;;;;10428858;28;20638;-77
2022/12/10 06:58:00;;;;;;;13.93;11.30;;;1.40;99.90;;;;;;10427608;28;20863;-78
2022/12/10 07:03:00;;;;;;;14.23;11.17;;;1.50;99.90;;;;;;10440874;28;20657;-80
2022/12/10 07:08:01;;;;;;;14.00;10.77;;;1.50;99.90;;;;;;10431497;28;20273;-78
2022/12/10 07:13:01;;;;;;;15.73;11.03;;;1.60;99.90;;;;;;10434307;28;20220;-79
2022/12/10 07:18:05;;;;;;;14.77;11.17;;;1.60;99.90;;;;;;10431667;28;20677;-78
2022/12/10 07:23:06;;;;;;;18.13;12.57;;;1.70;99.90;;;;;;10436615;28;20235;-77
2022/12/10 07:28:07;;;;;;;14.40;9.67;;;1.80;99.90;;;;;;10436299;28;20695;-77
2022/12/10 07:33:07;;;;;;;13.37;10.07;;;1.90;99.90;;;;;;10469040;28;20219;-75
2022/12/10 07:38:08;;;;;;;15.40;11.43;;;1.90;99.90;;;;;;10442623;28;20216;-78
2022/12/10 07:43:08;;;;;;;14.70;11.37;;;2.00;99.90;;;;;;10436924;28;20231;-77
2022/12/10 07:48:10;;;;;;;14.20;10.53;;;2.00;99.90;;;;;;10439243;28;20219;-78
2022/12/10 07:53:10;;;;;;;15.00;11.03;;;2.10;99.90;;;;;;10431127;28;20229;-76
2022/12/10 07:58:11;;;;;;;17.30;10.50;;;2.10;99.90;;;;;;10435769;28;20228;-79
2022/12/10 08:03:11;;;;;;;12.40;9.97;;;2.20;99.90;;;;;;10430936;28;20744;-76
2022/12/10 08:08:12;;;;;;;14.63;10.80;;;2.20;99.90;;;;;;10438480;28;20216;-78
2022/12/10 08:13:13;;;;;;;13.13;10.23;;;2.30;99.90;;;;;;10436602;28;20220;-77
2022/12/10 08:18:14;;;;;;;14.47;10.47;;;2.40;99.90;;;;;;10436100;28;20227;-78
2022/12/10 08:23:14;;;;;;;15.60;10.30;;;2.60;99.90;;;;;;10430843;28;20687;-78
2022/12/10 08:28:15;;;;;;;13.53;10.43;;;2.60;99.90;;;;;;10434326;28;20232;-81
2022/12/10 08:33:15;;;;;;;14.40;11.20;;;2.70;99.90;;;;;;10431144;28;20229;-77
2022/12/10 08:38:17;;;;;;;15.27;10.40;;;2.60;99.90;;;;;;10435916;28;20226;-80
2022/12/10 08:43:18;;;;;;;12.90;9.67;;;2.70;99.90;;;;;;10428652;28;20260;-77
2022/12/10 08:48:18;;;;;;;13.47;10.03;;;2.80;99.90;;;;;;10427004;28;20698;-77
2022/12/10 08:53:19;;;;;;;11.80;9.87;;;2.90;99.90;;;;;;10434710;28;20628;-78
2022/12/10 08:58:21;;;;;;;13.40;10.37;;;3.00;99.90;;;;;;10429563;28;20228;-77
2022/12/10 09:03:21;;;;;;;13.87;9.73;;;3.00;99.90;;;;;;10436036;28;20227;-76
2022/12/10 09:08:22;;;;;;;12.53;9.97;;;3.10;99.90;;;;;;10441985;28;20228;-77
2022/12/10 09:13:22;;;;;;;11.83;9.77;;;3.20;99.90;;;;;;10426658;28;20291;-74
2022/12/10 09:18:23;;;;;;;12.70;10.07;;;3.20;99.90;;;;;;10435137;28;20597;-78
2022/12/10 09:23:23;;;;;;;12.67;9.83;;;3.30;99.90;;;;;;10426824;28;20320;-77
2022/12/10 09:28:24;;;;;;;12.13;9.77;;;3.50;99.90;;;;;;10436862;28;20216;-78
2022/12/10 09:33:26;;;;;;;11.50;8.93;;;3.70;99.90;;;;;;10433913;28;20937;-77
2022/12/10 09:38:26;;;;;;;12.17;9.67;;;3.80;99.90;;;;;;10437997;28;20309;-76
2022/12/10 09:43:27;;;;;;;12.57;9.50;;;3.90;99.90;;;;;;10434432;28;20739;-78
2022/12/10 09:48:39;;;;;;;11.33;9.63;;;4.00;99.90;;;;;;10442328;28;20211;-78
2022/12/10 09:53:42;;;;;;;13.80;10.10;;;4.30;99.90;;;;;;10432673;28;20235;-78
2022/12/10 09:58:43;;;;;;;9.93;8.43;;;4.70;99.90;;;;;;10422334;28;20225;-77
2022/12/10 10:03:46;;;;;;;11.10;9.10;;;5.10;99.90;;;;;;10431416;28;20207;-76
2022/12/10 10:08:59;;;;;;;11.23;9.40;;;5.40;99.90;;;;;;10428565;28;20238;-77
2022/12/10 10:14:25;;;;;;;11.77;9.93;;;5.80;99.90;;;;;;10433268;28;20215;-77
2022/12/10 10:19:29;;;;;;;12.63;9.67;;;5.90;99.90;;;;;;10425104;28;20221;-76
2022/12/10 10:24:45;;;;;;;11.17;9.37;;;5.70;99.90;;;;;;10425124;28;20887;-77
2022/12/10 10:29:50;;;;;;;15.03;10.27;;;5.70;99.90;;;;;;10423396;28;20259;-77
2022/12/10 10:34:57;;;;;;;12.07;9.97;;;5.30;99.90;;;;;;10412623;28;20226;-77
2022/12/10 10:39:58;;;;;;;12.20;10.30;;;4.80;99.90;;;;;;10446026;28;20225;-78
2022/12/10 10:44:58;;;;;;;14.73;11.37;;;4.50;99.90;;;;;;10435700;28;20220;-77
2022/12/10 10:50:00;;;;;;;13.27;10.67;;;4.50;99.90;;;;;;10433060;28;20289;-78
2022/12/10 10:55:01;;;;;;;13.13;10.93;;;4.70;99.90;;;;;;10437046;28;20228;-76
2022/12/10 11:00:18;;;;;;;15.13;10.93;;;4.90;99.90;;;;;;10443008;28;20219;-78
2022/12/10 11:05:27;;;;;;;12.60;10.30;;;5.10;99.90;;;;;;10433943;28;20220;-77
2022/12/10 11:10:29;;;;;;;13.33;10.83;;;5.10;99.90;;;;;;10438407;28;20639;-77
2022/12/10 11:15:33;;;;;;;15.00;10.73;;;4.90;99.90;;;;;;10432394;28;20269;-77
2022/12/10 11:20:34;;;;;;;14.57;11.63;;;4.70;99.90;;;;;;10431483;28;20324;-77
2022/12/10 11:25:54;;;;;;;13.70;10.73;;;4.60;99.90;;;;;;10438611;28;20224;-77
2022/12/10 11:31:06;;;;;;;12.93;10.47;;;4.60;99.90;;;;;;10436107;28;20730;-77
2022/12/10 11:36:33;;;;;;;13.23;11.37;;;4.80;99.90;;;;;;10438847;28;20649;-78
2022/12/10 11:42:03;;;;;;;15.13;11.00;;;4.70;99.90;;;;;;10446507;28;20282;-77
2022/12/10 11:47:29;;;;;;;12.30;10.20;;;4.60;99.90;;;;;;10441146;28;20212;-77
2022/12/10 11:52:45;;;;;;;14.33;10.93;;;4.40;99.90;;;;;;10427524;28;20216;-78
2022/12/10 11:58:29;;;;;;;12.43;10.00;;;4.40;99.90;;;;;;10432712;28;20322;-77
2022/12/10 12:03:51;;;;;;;10.10;8.77;;;4.40;99.90;;;;;;10428361;28;20228;-75
2022/12/10 12:09:13;;;;;;;11.53;10.03;;;4.50;99.90;;;;;;10446482;28;20208;-78
2022/12/10 12:14:24;;;;;;;12.87;10.40;;;4.60;99.90;;;;;;10434163;28;20243;-78
2022/12/10 12:19:39;;;;;;;14.03;10.83;;;4.70;99.90;;;;;;10430204;28;20235;-77
2022/12/10 12:24:45;;;;;;;14.17;11.70;;;4.80;99.90;;;;;;10437064;28;20273;-77
2022/12/10 12:30:00;;;;;;;11.73;9.80;;;4.60;99.90;;;;;;10429582;28;20220;-78
2022/12/10 12:35:19;;;;;;;13.00;10.97;;;4.40;99.90;;;;;;10433602;28;20224;-78
2022/12/10 12:40:46;;;;;;;13.00;10.37;;;4.20;99.90;;;;;;10435823;28;20314;-76
2022/12/10 12:45:49;;;;;;;12.23;9.93;;;4.30;99.90;;;;;;10437833;28;20615;-78
2022/12/10 12:50:57;;;;;;;12.63;10.27;;;4.30;99.90;;;;;;10433678;28;20213;-75
2022/12/10 12:56:04;;;;;;;13.77;9.80;;;4.20;99.90;;;;;;10427042;28;20307;-78
2022/12/10 13:01:16;;;;;;;13.47;10.80;;;4.00;99.90;;;;;;10432605;28;20236;-77
2022/12/10 13:06:22;;;;;;;12.37;10.30;;;4.00;99.90;;;;;;10433899;28;20219;-77
2022/12/10 13:11:34;;;;;;;13.20;9.97;;;4.00;99.90;;;;;;10427140;28;20220;-77
2022/12/10 13:16:41;;;;;;;11.73;10.10;;;3.90;99.90;;;;;;10425703;28;20230;-77
2022/12/10 13:22:02;;;;;;;15.43;10.70;;;4.10;99.90;;;;;;10427984;28;20232;-76
2022/12/10 13:27:04;;;;;;;13.90;9.27;;;4.20;99.90;;;;;;10435759;28;20268;-78
2022/12/10 13:32:18;;;;;;;11.30;9.33;;;4.20;99.90;;;;;;10425892;28;20437;-76
2022/12/10 13:37:29;;;;;;;13.97;9.87;;;4.30;99.90;;;;;;10426025;28;20703;-77
2022/12/10 13:48:31;;;;;;;13.30;10.67;;;4.10;99.90;;;;;;10428961;28;20224;-78
2022/12/10 13:54:02;;;;;;;11.03;8.67;;;4.20;99.90;;;;;;10436608;28;20223;-76
2022/12/10 13:59:29;;;;;;;11.40;9.00;;;4.20;99.90;;;;;;10420570;28;20775;-77
2022/12/10 14:05:23;;;;;;;12.90;9.43;;;4.20;99.90;;;;;;10440677;28;20247;-76
2022/12/10 14:10:33;;;;;;;12.17;9.33;;;4.20;99.90;;;;;;10395489;28;20208;-77
2022/12/10 14:15:37;;;;;;;12.77;8.63;;;4.10;99.90;;;;;;10425737;28;20266;-76
2022/12/10 14:20:43;;;;;;;11.37;9.63;;;4.10;99.90;;;;;;10431909;28;20238;-76
2022/12/10 14:25:46;;;;;;;12.83;9.57;;;4.00;99.90;;;;;;10426629;28;20338;-76
2022/12/10 14:30:49;;;;;;;11.63;9.17;;;4.00;99.90;;;;;;10431444;28;20204;-77
2022/12/10 14:35:52;;;;;;;12.67;9.93;;;4.00;99.90;;;;;;10434196;28;20326;-77
2022/12/10 14:40:54;;;;;;;10.20;8.63;;;4.00;99.90;;;;;;10429252;28;20266;-76
2022/12/10 14:45:57;;;;;;;10.97;9.13;;;3.90;99.90;;;;;;10427868;28;20222;-77
2022/12/10 14:51:10;;;;;;;12.40;9.30;;;3.90;99.90;;;;;;10428922;28;20313;-78
2022/12/10 14:56:20;;;;;;;11.07;9.00;;;3.90;99.90;;;;;;10427585;28;20223;-77
2022/12/10 15:01:29;;;;;;;11.20;8.60;;;3.80;99.90;;;;;;10425084;28;20228;-77
2022/12/10 15:06:35;;;;;;;12.07;8.60;;;3.80;99.90;;;;;;10425246;28;20226;-76
2022/12/10 15:11:35;;;;;;;11.77;8.90;;;3.80;99.90;;;;;;10438797;28;20227;-77
2022/12/10 15:16:43;;;;;;;13.60;10.00;;;3.70;99.90;;;;;;10423306;28;20224;-77
2022/12/10 15:21:46;;;;;;;12.43;9.50;;;3.60;99.90;;;;;;10433419;28;20228;-78
2022/12/10 15:26:49;;;;;;;12.23;9.87;;;3.50;99.90;;;;;;10434545;28;20217;-77
2022/12/10 15:31:56;;;;;;;13.60;9.73;;;3.40;99.90;;;;;;10437677;28;20285;-75
2022/12/10 15:37:02;;;;;;;15.47;10.07;;;3.30;99.90;;;;;;10441871;28;20249;-77
2022/12/10 15:42:07;;;;;;;12.57;9.90;;;3.10;99.90;;;;;;10434031;28;20631;-77
2022/12/10 15:47:16;;;;;;;13.10;10.13;;;3.10;99.90;;;;;;10439074;28;20219;-77
2022/12/10 15:52:25;;;;;;;12.47;10.20;;;3.10;99.90;;;;;;10429547;28;20239;-78
2022/12/10 15:57:32;;;;;;;11.93;9.10;;;3.00;99.90;;;;;;10430753;28;20228;-76
2022/12/10 16:02:50;;;;;;;14.23;10.50;;;3.00;99.90;;;;;;10436404;28;20390;-75
2022/12/10 16:07:53;;;;;;;13.73;10.27;;;2.90;99.90;;;;;;10442915;28;20247;-77
2022/12/10 16:13:01;;;;;;;12.63;9.70;;;2.80;99.90;;;;;;10433115;28;20224;-76
2022/12/10 16:18:03;;;;;;;13.77;10.60;;;2.70;99.90;;;;;;10430402;28;20226;-74
2022/12/10 16:23:05;;;;;;;11.17;9.40;;;2.70;99.90;;;;;;10438335;28;20779;-78
2022/12/10 16:28:06;;;;;;;11.80;9.33;;;2.60;99.90;;;;;;10441512;28;20224;-77
2022/12/10 16:33:07;;;;;;;13.90;10.63;;;2.60;99.90;;;;;;10431422;28;20224;-75
2022/12/10 16:38:08;;;;;;;12.47;9.83;;;2.50;99.90;;;;;;10431779;28;20224;-77
2022/12/10 16:43:15;;;;;;;15.60;10.47;;;2.30;99.90;;;;;;10434456;28;20306;-78
2022/12/10 16:48:19;;;;;;;11.80;9.67;;;2.20;99.90;;;;;;10427131;28;20216;-77
2022/12/10 16:53:25;;;;;;;12.27;9.60;;;2.20;99.90;;;;;;10428079;28;20221;-76
2022/12/10 16:58:26;;;;;;;11.03;9.27;;;2.20;99.90;;;;;;10436646;28;20742;-76
2022/12/10 17:03:30;;;;;;;13.03;9.90;;;2.20;99.90;;;;;;10413164;28;20224;-77
2022/12/10 17:08:33;;;;;;;15.60;11.33;;;2.20;99.90;;;;;;10426321;28;20538;-77
2022/12/10 17:13:35;;;;;;;15.43;11.43;;;2.10;99.90;;;;;;10441387;28;20576;-77
2022/12/10 17:18:36;;;;;;;13.03;10.13;;;2.00;99.90;;;;;;10435172;28;20223;-76
2022/12/10 17:23:36;;;;;;;13.20;10.43;;;2.00;99.90;;;;;;10429266;28;20639;-76
2022/12/10 17:28:37;;;;;;;13.10;10.17;;;1.90;99.90;;;;;;10433859;28;20221;-76
2022/12/10 17:33:37;;;;;;;14.27;10.93;;;2.00;99.90;;;;;;10434384;28;20226;-74
2022/12/10 17:38:38;;;;;;;13.90;10.73;;;1.90;99.90;;;;;;10434261;28;20273;-77
2022/12/10 17:43:38;;;;;;;14.77;11.53;;;1.90;99.90;;;;;;10426862;28;20805;-77
2022/12/10 17:48:40;;;;;;;15.50;11.00;;;1.90;99.90;;;;;;10433510;28;20299;-77
2022/12/10 17:53:42;;;;;;;15.37;11.17;;;2.00;99.90;;;;;;10442395;28;20219;-77
2022/12/10 17:58:43;;;;;;;15.70;11.63;;;2.00;99.90;;;;;;10434458;28;20228;-76
2022/12/10 18:03:45;;;;;;;17.57;12.17;;;2.00;99.90;;;;;;10431494;28;20232;-75
2022/12/10 18:08:48;;;;;;;14.90;11.33;;;1.90;99.90;;;;;;10428107;28;20270;-77
2022/12/10 18:13:49;;;;;;;15.03;11.90;;;1.80;99.90;;;;;;10431968;28;20216;-77
2022/12/10 18:18:50;;;;;;;16.53;11.37;;;1.80;99.90;;;;;;10427655;28;20219;-76
2022/12/10 18:23:50;;;;;;;16.27;12.50;;;1.70;99.90;;;;;;10430012;28;20209;-77
2022/12/10 18:28:57;;;;;;;19.97;11.43;;;1.60;99.90;;;;;;10427597;28;20261;-77
2022/12/10 18:34:05;;;;;;;15.20;11.03;;;1.40;99.90;;;;;;10436912;28;20645;-76
2022/12/10 18:39:18;;;;;;;17.13;11.87;;;1.20;99.90;;;;;;10433274;28;20324;-77
2022/12/10 18:44:22;;;;;;;14.23;11.33;;;1.00;99.90;;;;;;10432073;28;20307;-77
2022/12/10 18:49:24;;;;;;;16.47;12.13;;;0.90;99.90;;;;;;10425386;28;20217;-77
2022/12/10 18:54:24;;;;;;;17.17;11.37;;;0.70;99.90;;;;;;10455575;28;20224;-76
2022/12/10 18:59:28;;;;;;;16.33;11.47;;;0.60;99.90;;;;;;10432640;28;20228;-76
2022/12/10 19:04:29;;;;;;;17.30;11.83;;;0.60;99.90;;;;;;10440635;28;20254;-76
2022/12/10 19:09:31;;;;;;;18.17;12.80;;;0.50;99.90;;;;;;10437907;28;20235;-77
2022/12/10 19:14:32;;;;;;;18.27;12.63;;;0.40;99.90;;;;;;10447118;28;20211;-75
2022/12/10 19:19:32;;;;;;;19.57;12.97;;;0.30;99.90;;;;;;10432377;28;20228;-77
2022/12/10 19:24:33;;;;;;;17.80;12.57;;;0.20;99.90;;;;;;10432244;28;20291;-77
2022/12/10 19:29:33;;;;;;;21.77;13.43;;;0.10;99.90;;;;;;10439447;28;20215;-78
2022/12/10 19:34:35;;;;;;;17.67;13.27;;;0.00;99.90;;;;;;10437823;28;20633;-76
2022/12/10 19:39:35;;;;;;;18.43;13.63;;;-0.10;99.90;;;;;;10439795;28;20319;-76
2022/12/10 19:44:36;;;;;;;19.27;14.07;;;-0.20;99.90;;;;;;10437938;28;20686;-77
2022/12/10 19:49:36;;;;;;;19.07;13.57;;;-0.20;99.90;;;;;;10430925;28;20227;-75
2022/12/10 19:54:37;;;;;;;20.33;13.57;;;-0.20;99.90;;;;;;10442067;28;20218;-77
2022/12/10 19:59:38;;;;;;;20.10;14.27;;;-0.30;99.90;;;;;;10432885;28;20350;-78
2022/12/10 20:04:38;;;;;;;21.23;13.87;;;-0.40;99.90;;;;;;10438148;28;20342;-75
2022/12/10 20:09:39;;;;;;;22.60;14.33;;;-0.50;99.90;;;;;;10434762;28;20691;-76
2022/12/10 20:14:39;;;;;;;21.10;13.77;;;-0.50;99.90;;;;;;10439633;28;20224;-77
2022/12/10 20:19:40;;;;;;;20.50;14.03;;;-0.50;99.90;;;;;;10435371;28;20224;-77
2022/12/10 20:24:41;;;;;;;24.20;16.73;;;-0.60;99.90;;;;;;10429965;28;20303;-77
2022/12/10 20:29:42;;;;;;;21.47;14.23;;;-0.60;99.90;;;;;;10431655;28;20293;-78
2022/12/10 20:34:43;;;;;;;24.00;15.53;;;-0.70;99.90;;;;;;10436565;28;20779;-77
2022/12/10 20:39:43;;;;;;;25.23;15.73;;;-0.70;99.90;;;;;;10439653;28;20307;-75
2022/12/10 20:44:44;;;;;;;23.43;16.70;;;-0.70;99.90;;;;;;10429716;28;20217;-77
2022/12/10 20:49:44;;;;;;;26.10;16.33;;;-0.70;99.90;;;;;;10434062;28;20231;-77
2022/12/10 20:54:45;;;;;;;26.00;17.10;;;-0.70;99.90;;;;;;10430719;28;20228;-77
2022/12/10 20:59:45;;;;;;;26.33;16.73;;;-0.80;99.90;;;;;;10428467;28;20777;-77
2022/12/10 21:04:46;;;;;;;26.40;16.00;;;-0.80;99.90;;;;;;10434790;28;20282;-78
2022/12/10 21:09:46;;;;;;;36.30;20.07;;;-0.90;99.90;;;;;;10432734;28;20212;-77
2022/12/10 21:14:47;;;;;;;30.13;19.30;;;-0.90;99.90;;;;;;10433894;28;20245;-77
2022/12/10 21:19:47;;;;;;;23.07;15.97;;;-0.90;99.90;;;;;;10427697;28;20230;-76
2022/12/10 21:24:48;;;;;;;24.37;16.43;;;-1.00;99.90;;;;;;10439848;28;20217;-77
2022/12/10 21:29:48;;;;;;;25.53;16.83;;;-1.00;99.90;;;;;;10427642;28;20226;-75
2022/12/10 21:34:49;;;;;;;24.13;16.50;;;-1.10;99.90;;;;;;10429942;28;20220;-77
2022/12/10 21:39:49;;;;;;;24.10;17.40;;;-1.10;99.90;;;;;;10444393;28;20866;-76
2022/12/10 21:44:53;;;;;;;23.43;15.47;;;-1.20;99.90;;;;;;10441837;28;20238;-78
2022/12/10 21:49:54;;;;;;;26.23;16.83;;;-1.10;99.90;;;;;;10431969;28;20589;-77
2022/12/10 21:54:54;;;;;;;25.33;16.33;;;-1.00;99.90;;;;;;10434879;28;20228;-78
2022/12/10 21:59:56;;;;;;;24.80;17.00;;;-0.90;99.90;;;;;;10435605;28;20306;-75
2022/12/10 22:04:57;;;;;;;24.73;17.27;;;-0.80;99.90;;;;;;10424261;28;20247;-77
2022/12/10 22:09:57;;;;;;;24.63;16.57;;;-0.70;99.90;;;;;;10427913;28;20248;-77
2022/12/10 22:14:58;;;;;;;25.43;16.97;;;-0.60;99.90;;;;;;10432950;28;20240;-78
2022/12/10 22:19:59;;;;;;;25.77;16.33;;;-0.60;99.90;;;;;;10423027;28;20897;-77
2022/12/10 22:25:00;;;;;;;25.37;16.20;;;-0.70;99.90;;;;;;10424039;28;20290;-77
2022/12/10 22:30:03;;;;;;;24.67;16.90;;;-0.70;99.90;;;;;;10433765;28;20593;-78
2022/12/10 22:35:04;;;;;;;24.73;17.20;;;-0.70;99.90;;;;;;10427526;28;20255;-76
2022/12/10 22:40:06;;;;;;;22.77;15.53;;;-0.70;99.90;;;;;;10431754;28;20711;-76
2022/12/10 22:45:08;;;;;;;27.63;16.60;;;-0.80;99.90;;;;;;10427990;28;20195;-76
2022/12/10 22:50:09;;;;;;;34.57;22.27;;;-0.70;99.90;;;;;;10427215;28;20180;-77
2022/12/10 22:55:09;;;;;;;31.77;20.30;;;-0.70;99.90;;;;;;10388892;28;1147870;-77
2022/12/10 23:00:15;;;;;;;26.07;18.10;;;-0.60;99.90;;;;;;10427035;28;20204;-79
2022/12/10 23:05:16;;;;;;;32.20;20.13;;;-0.60;99.90;;;;;;10429522;28;20195;-76
2022/12/10 23:10:16;;;;;;;28.33;18.80;;;-0.60;99.90;;;;;;10429007;28;20211;-77
2022/12/10 23:15:17;;;;;;;24.23;16.30;;;-0.50;99.90;;;;;;10439862;28;20232;-75
2022/12/10 23:20:18;;;;;;;26.80;17.13;;;-0.50;99.90;;;;;;10426540;28;20204;-76
2022/12/10 23:25:19;;;;;;;25.53;17.90;;;-0.60;99.90;;;;;;10432895;28;20195;-76
2022/12/10 23:30:19;;;;;;;34.30;21.30;;;-0.70;99.90;;;;;;10431347;28;20183;-75
2022/12/10 23:35:20;;;;;;;40.13;23.77;;;-0.80;99.90;;;;;;10432690;28;20198;-76
2022/12/10 23:40:20;;;;;;;30.83;20.03;;;-0.90;99.90;;;;;;10426937;28;20205;-73
2022/12/10 23:45:22;;;;;;;32.37;19.67;;;-1.10;99.90;;;;;;10438635;28;20184;-76
2022/12/10 23:50:23;;;;;;;28.73;18.37;;;-1.10;99.90;;;;;;10438539;28;20223;-79
2022/12/10 23:55:25;;;;;;;28.43;19.30;;;-1.10;99.90;;;;;;10436614;28;20212;-76
